Huvudsida
METAR-TAF:

METAR-TAF

Flygplatser :

Pajala Airport

Pajala, Sverige

latitud: 67-14-44N, longitud: 023-04-08E, höjd: 165 m

Aktuellt väderrapport

Denna rapport gjordes för 34 minuter sedan, klockan 15:20 UTC
Vind 7 kt från ost/nordost
Temperatur -9°C
Fuktighet 85%
Tryck 986 hPa
Sikt: 2200 m
Få moln på en höjd av 500 ft
Spridda moln på en höjd av 800 ft
lätt snö, fuktdis

METAR: ESUP 191520Z 06007KT 2200 -SN BR FEW005 SCT008 M09/M11 Q0986

Tid: 16:54 (15:54 UTC)


TAF: saknas

Aktuella väderrapporter och prognoser från 4000 flygplatser (METAR- och TAF-rapporter).

De tillgängliga stationerna syns som gula och röda prickar på kartan.

För musen över prickarna för att se namnen på stationerna.

Klicka sedan för att få väderrapporter och prognoser.

För att ändra kartan: Klicka på de gröna knapparna med ett svart kors på för att zooma in; den gröna knappen med ett streck på för att zooma ut; eller på de gröna pilarna för angränsande kartor.


METAR-TAF: